Time;durP1;ratioP1;P1;durP2;ratioP2;P2;SDS_P1;SDS_P2;PMS_P1;PMS_P2;Temp;Humidity;BMP_temperature;BMP_pressure;BME280_temperature;BME280_humidity;BME280_pressure;Samples;Min_cycle;Max_cycle;Signal;HPM_P1;HPM_P2
2022/02/20 00:00:31;;;;;;;;;;;;;;;6.53;45.76;100220.44;4330785;33;33682;-81
2022/02/20 00:12:37;;;;;;;;;;;;;;;6.41;46.66;100226.59;4286497;33;36320;-81
2022/02/20 00:18:34;;;;;;;;;;;;;;;;;;;;;
2022/02/20 00:22:04;;;;;;;;;;;;;;;6.21;46.42;100229.78;4339374;33;34519;-82
2022/02/20 00:31:17;;;;;;;;;;;;;;;6.16;45.91;100236.34;4289467;33;34085;-81
2022/02/20 00:44:16;;;;;;;;;;;;;;;;;;;;;
2022/02/20 00:47:06;;;;;;;;;;;;;;;5.78;46.22;100224.88;4303478;33;34557;-81
2022/02/20 00:50:39;;;;;;;;;;;;;;;5.55;46.56;100223.78;4277172;33;34158;-83
2022/02/20 01:09:09;;;;;;;;;;;;;;;5.42;46.55;100208.88;4316062;33;33578;-83
2022/02/20 01:15:24;;;;;;;;;;;;;;;5.80;45.40;100209.81;4297471;33;35345;-83
2022/02/20 01:18:31;;;;;;;;;;;;;;;5.85;45.18;100197.97;4301222;33;34370;-80
2022/02/20 01:21:48;;;;;;;;;;;;;;;5.59;45.97;100201.50;4298883;33;33584;-82
2022/02/20 01:27:57;;;;;;;;;;;;;;;5.85;45.17;100194.47;4303262;33;34886;-82
2022/02/20 01:34:27;;;;;;;;;;;;;;;5.62;46.13;100192.53;4267098;33;33045;-81
2022/02/20 01:47:25;;;;;;;;;;;;;;;5.28;47.74;100168.53;4266233;33;33198;-82
2022/02/20 01:59:24;;;;;;;;;;;;;;;5.51;46.92;100166.88;4264526;33;33383;-83
2022/02/20 02:03:20;;;;;;;;;;;;;;;5.65;46.67;100155.37;4219433;33;33948;-82
2022/02/20 02:12:26;;;;;;;;;;;;;;;;;;;;;
2022/02/20 02:25:09;;;;;;;;;;;;;;;5.64;47.71;100109.69;4315485;33;33542;-83
2022/02/20 02:44:44;;;;;;;;;;;;;;;5.60;47.60;100094.16;4293407;33;33238;-82
2022/02/20 02:50:25;;;;;;;;;;;;;;;;;;;;;
2022/02/20 03:18:21;;;;;;;;;;;;;;;;;;;;;
2022/02/20 03:21:20;;;;;;;;;;;;;;;5.08;50.18;100103.09;4330110;33;34607;-82
2022/02/20 03:28:18;;;;;;;;;;;;;;;5.01;51.23;100091.25;4343949;33;34418;-81
2022/02/20 03:34:07;;;;;;;;;;;;;;;;;;;;;
2022/02/20 03:50:09;;;;;;;;;;;;;;;4.67;52.19;100094.41;4337401;32;32405;-81
2022/02/20 04:12:45;;;;;;;;;;;;;;;4.90;52.14;100105.13;4324348;33;36121;-81
2022/02/20 04:19:01;;;;;;;;;;;;;;;4.99;51.80;100107.16;4299909;33;33289;-82
2022/02/20 04:21:35;;;;;;;;;;;;;;;;;;;;;
2022/02/20 04:27:43;;;;;;;;;;;;;;;4.94;51.88;100106.66;4302025;33;34563;-81
2022/02/20 04:34:02;;;;;;;;;;;;;;;;;;;;;
2022/02/20 04:53:08;;;;;;;;;;;;;;;4.56;52.95;100099.56;4288898;33;35276;-83
2022/02/20 04:58:46;;;;;;;;;;;;;;;;;;;;;
2022/02/20 05:04:58;;;;;;;;;;;;;;;4.27;53.87;100100.59;4283809;33;34855;-83
2022/02/20 05:20:52;;;;;;;;;;;;;;;;;;;;;
2022/02/20 05:33:31;;;;;;;;;;;;;;;;;;;;;
2022/02/20 05:39:49;;;;;;;;;;;;;;;4.13;56.05;100096.19;4357712;32;34703;-84
2022/02/20 05:42:57;;;;;;;;;;;;;;;;;;;;;
2022/02/20 05:59:02;;;;;;;;;;;;;;;4.30;55.62;100079.31;4265241;33;31652;-84
2022/02/20 06:02:19;;;;;;;;;;;;;;;4.33;55.55;100071.22;4292133;33;35155;-82
2022/02/20 06:30:26;;;;;;;;;;;;;;;4.49;55.36;100059.59;4289583;33;36068;-81
2022/02/20 06:39:18;;;;;;;;;;;;;;;;;;;;;
2022/02/20 06:48:35;;;;;;;;;;;;;;;4.97;56.33;100063.38;4340984;32;35084;-82
2022/02/20 07:17:47;;;;;;;;;;;;;;;6.33;62.86;100022.81;4269122;33;34108;-84
2022/02/20 07:36:21;;;;;;;;;;;;;;;7.38;61.78;100024.50;4230807;33;35639;-81
2022/02/20 07:48:46;;;;;;;;;;;;;;;;;;;;;
2022/02/20 07:59:01;;;;;;;;;;;;;;;7.59;60.43;100033.41;4286225;33;33180;-83
2022/02/20 08:05:39;;;;;;;;;;;;;;;7.59;60.25;100039.56;4277035;33;35049;-82
2022/02/20 08:08:41;;;;;;;;;;;;;;;8.00;59.26;100045.06;4279589;33;32961;-84
2022/02/20 08:11:17;;;;;;;;;;;;;;;7.79;59.76;100052.06;4283914;33;33857;-82
2022/02/20 08:26:25;;;;;;;;;;;;;;;8.30;57.89;100086.88;4348553;32;34840;-83
2022/02/20 08:52:22;;;;;;;;;;;;;;;8.84;55.83;100104.44;4330228;33;35019;-82
2022/02/20 09:01:41;;;;;;;;;;;;;;;9.23;54.12;100123.22;4320161;33;34018;-82
2022/02/20 09:04:37;;;;;;;;;;;;;;;;;;;;;
2022/02/20 09:10:43;;;;;;;;;;;;;;;;;;;;;
2022/02/20 09:14:24;;;;;;;;;;;;;;;9.46;52.97;100106.19;4369751;32;34192;-81
2022/02/20 09:17:00;;;;;;;;;;;;;;;;;;;;;
2022/02/20 09:26:53;;;;;;;;;;;;;;;9.90;52.16;100127.16;4314971;33;34661;-83
2022/02/20 09:33:12;;;;;;;;;;;;;;;10.34;52.28;100110.88;4308400;33;34611;-82
2022/02/20 09:36:58;;;;;;;;;;;;;;;10.29;52.13;100112.25;4321295;33;33490;-84
2022/02/20 09:58:17;;;;;;;;;;;;;;;10.37;52.30;100093.81;4287461;33;34427;-84
2022/02/20 10:01:43;;;;;;;;;;;;;;;10.45;52.19;100083.31;4273777;33;34970;-82
2022/02/20 10:05:04;;;;;;;;;;;;;;;10.32;52.53;100091.56;4321392;33;32574;-84
2022/02/20 10:08:55;;;;;;;;;;;;;;;10.11;53.07;100090.75;4325144;33;36944;-82
2022/02/20 10:11:49;;;;;;;;;;;;;;;10.09;53.44;100086.56;4332561;33;33377;-83
2022/02/20 10:35:10;;;;;;;;;;;;;;;;;;;;;
2022/02/20 10:41:51;;;;;;;;;;;;;;;10.56;52.69;100045.97;4258228;33;31157;-85
2022/02/20 10:44:59;;;;;;;;;;;;;;;10.89;51.71;100046.41;4246639;33;35870;-81
2022/02/20 10:48:09;;;;;;;;;;;;;;;10.84;52.02;100043.31;4253538;33;34966;-82
2022/02/20 10:53:58;;;;;;;;;;;;;;;;;;;;;
2022/02/20 11:03:35;;;;;;;;;;;;;;;10.95;51.75;100045.00;4272724;33;35713;-83
2022/02/20 11:06:19;;;;;;;;;;;;;;;11.07;51.18;100025.22;4265861;33;33090;-82
2022/02/20 11:25:59;;;;;;;;;;;;;;;;;;;;;
2022/02/20 11:28:48;;;;;;;;;;;;;;;12.11;49.22;100004.44;4352206;31;4198917;-85
2022/02/20 11:35:14;;;;;;;;;;;;;;;;;;;;;
2022/02/20 11:53:47;;;;;;;;;;;;;;;;;;;;;
2022/02/20 12:00:32;;;;;;;;;;;;;;;11.51;44.61;99961.47;4433332;32;34405;-79
2022/02/20 12:10:43;;;;;;;;;;;;;;;11.62;44.77;99962.16;4422967;32;32457;-84
2022/02/20 12:13:41;;;;;;;;;;;;;;;11.68;45.11;99963.41;4400840;32;34542;-85
2022/02/20 12:21:00;;;;;;;;;;;;;;;11.08;45.98;99955.03;4427884;32;34912;-85
2022/02/20 12:44:54;;;;;;;;;;;;;;;11.65;44.24;99935.22;4361651;32;36275;-83
2022/02/20 12:54:29;;;;;;;;;;;;;;;;;;;;;
2022/02/20 13:00:51;;;;;;;;;;;;;;;13.03;39.35;99921.25;4346721;33;32659;-83
2022/02/20 13:35:45;;;;;;;;;;;;;;;12.72;39.81;99906.66;4389767;32;34827;-83
2022/02/20 13:48:25;;;;;;;;;;;;;;;12.48;39.58;99901.13;4270990;33;36185;-86
2022/02/20 13:55:38;;;;;;;;;;;;;;;;;;;;;
2022/02/20 14:09:17;;;;;;;;;;;;;;;12.57;40.64;99896.69;4415846;32;32816;-84
2022/02/20 14:13:11;;;;;;;;;;;;;;;12.89;40.17;99895.13;4409635;32;32950;-82
2022/02/20 14:21:52;;;;;;;;;;;;;;;12.48;41.11;99887.78;4460673;32;20037;-90
2022/02/20 14:24:25;;;;;;;;;;;;;;;12.80;40.97;99881.84;4434878;32;33009;-84
2022/02/20 14:27:06;;;;;;;;;;;;;;;12.99;40.42;99884.34;4437802;32;33988;-86
2022/02/20 14:29:36;;;;;;;;;;;;;;;12.65;40.59;99878.91;4436933;32;35360;-86
2022/02/20 14:32:05;;;;;;;;;;;;;;;12.50;41.51;99876.94;4451247;32;35230;-87
2022/02/20 14:34:42;;;;;;;;;;;;;;;12.92;41.11;99875.28;4423803;32;32035;-87
2022/02/20 14:37:10;;;;;;;;;;;;;;;13.12;40.66;99874.09;4423059;32;33264;-90
2022/02/20 14:39:38;;;;;;;;;;;;;;;12.80;41.04;99873.84;4448465;32;34546;-88
2022/02/20 14:42:05;;;;;;;;;;;;;;;13.04;40.87;99863.37;4440647;32;34422;-90
2022/02/20 14:44:35;;;;;;;;;;;;;;;13.51;40.39;99865.41;4467129;32;32886;-90
2022/02/20 14:47:09;;;;;;;;;;;;;;;13.88;39.62;99868.56;4442447;32;34182;-90
2022/02/20 14:49:37;;;;;;;;;;;;;;;14.51;37.77;99862.50;4436753;32;34427;-90
2022/02/20 14:52:04;;;;;;;;;;;;;;;14.69;37.24;99871.19;4448683;32;35515;-87
2022/02/20 14:54:32;;;;;;;;;;;;;;;14.20;38.11;99870.47;4447629;32;32926;-88
2022/02/20 14:57:00;;;;;;;;;;;;;;;13.88;38.11;99867.72;4447796;32;33393;-88
2022/02/20 14:59:47;;;;;;;;;;;;;;;13.82;38.50;99866.53;4441500;32;34855;-92
2022/02/20 15:02:15;;;;;;;;;;;;;;;13.11;39.62;99870.56;4435918;32;33552;-90
2022/02/20 15:04:43;;;;;;;;;;;;;;;13.67;39.01;99862.81;4455992;32;33107;-90
2022/02/20 15:07:11;;;;;;;;;;;;;;;13.71;38.23;99864.19;4435501;32;34930;-83
2022/02/20 15:09:54;;;;;;;;;;;;;;;13.12;39.77;99866.09;4421541;32;34845;-87
2022/02/20 15:12:29;;;;;;;;;;;;;;;13.43;38.82;99856.53;4439252;32;34710;-86
2022/02/20 15:14:57;;;;;;;;;;;;;;;12.97;39.75;99867.66;4416699;32;32231;-89
2022/02/20 15:17:25;;;;;;;;;;;;;;;13.34;39.66;99871.72;4414499;32;34319;-90
2022/02/20 15:19:54;;;;;;;;;;;;;;;13.42;39.53;99869.06;4425885;32;34494;-89
2022/02/20 15:22:23;;;;;;;;;;;;;;;13.26;40.14;99871.66;4424406;32;34121;-88
2022/02/20 15:24:51;;;;;;;;;;;;;;;13.18;39.97;99876.97;4413428;32;32478;-89
2022/02/20 15:27:19;;;;;;;;;;;;;;;12.99;39.99;99868.31;4400632;32;33070;-90
2022/02/20 15:29:47;;;;;;;;;;;;;;;13.23;39.95;99871.16;4434568;32;34322;-90
2022/02/20 15:32:14;;;;;;;;;;;;;;;12.99;39.95;99865.66;4413006;32;33383;-89
2022/02/20 15:34:42;;;;;;;;;;;;;;;12.82;40.50;99870.03;4413960;32;33909;-89
2022/02/20 15:37:09;;;;;;;;;;;;;;;12.92;40.28;99853.91;4417687;32;34995;-89
2022/02/20 15:39:39;;;;;;;;;;;;;;;13.18;39.69;99860.94;4421455;32;35912;-89
2022/02/20 15:42:07;;;;;;;;;;;;;;;13.30;39.39;99864.19;4410121;32;32955;-89
2022/02/20 15:44:35;;;;;;;;;;;;;;;13.16;39.52;99865.59;4423501;32;33008;-90
2022/02/20 15:47:04;;;;;;;;;;;;;;;13.24;39.54;99862.13;4410394;32;32513;-89
2022/02/20 15:49:32;;;;;;;;;;;;;;;13.29;39.27;99873.16;4433988;32;34605;-88
2022/02/20 15:51:59;;;;;;;;;;;;;;;13.51;38.98;99868.09;4398680;32;33662;-89
2022/02/20 15:54:27;;;;;;;;;;;;;;;13.43;38.66;99862.75;4413098;32;31327;-89
2022/02/20 15:56:54;;;;;;;;;;;;;;;13.45;38.86;99857.22;4425895;32;33808;-89
2022/02/20 15:59:27;;;;;;;;;;;;;;;13.60;38.60;99853.75;4424193;32;35163;-90
2022/02/20 16:01:55;;;;;;;;;;;;;;;13.27;39.28;99846.63;4426208;32;34482;-90
2022/02/20 16:04:23;;;;;;;;;;;;;;;13.11;39.87;99862.56;4410572;32;32233;-89
2022/02/20 16:06:51;;;;;;;;;;;;;;;12.77;41.77;99852.81;4424456;32;33824;-90
2022/02/20 16:09:19;;;;;;;;;;;;;;;12.26;45.27;99856.25;4412368;32;35421;-89
2022/02/20 16:11:48;;;;;;;;;;;;;;;12.05;46.89;99858.38;4411121;32;33650;-91
2022/02/20 16:14:15;;;;;;;;;;;;;;;12.05;47.26;99853.06;4410761;32;32934;-90
2022/02/20 16:16:46;;;;;;;;;;;;;;;11.74;48.66;99858.88;4412985;32;32752;-90
2022/02/20 16:19:14;;;;;;;;;;;;;;;11.56;49.20;99857.97;4398879;32;34410;-89
2022/02/20 16:21:42;;;;;;;;;;;;;;;11.44;49.63;99859.19;4436299;32;35172;-90
2022/02/20 16:24:10;;;;;;;;;;;;;;;11.23;50.28;99863.06;4426358;32;33397;-90
2022/02/20 16:26:45;;;;;;;;;;;;;;;11.34;49.90;99847.72;4423877;32;33730;-90
2022/02/20 16:29:12;;;;;;;;;;;;;;;11.43;49.84;99860.12;4426033;32;33539;-89
2022/02/20 16:31:42;;;;;;;;;;;;;;;11.00;50.74;99861.72;4404612;32;33452;-89
2022/02/20 16:34:11;;;;;;;;;;;;;;;11.37;49.71;99858.91;4440590;32;32932;-90
2022/02/20 16:36:39;;;;;;;;;;;;;;;10.81;51.20;99861.78;4430494;32;34709;-89
2022/02/20 16:39:07;;;;;;;;;;;;;;;11.15;50.49;99855.78;4424443;32;35076;-89
2022/02/20 16:41:34;;;;;;;;;;;;;;;10.95;50.77;99854.19;4435898;32;34521;-90
2022/02/20 16:44:03;;;;;;;;;;;;;;;10.83;51.33;99858.00;4409027;32;31943;-91
2022/02/20 16:46:35;;;;;;;;;;;;;;;11.02;50.68;99849.97;4418682;32;34032;-92
2022/02/20 16:49:06;;;;;;;;;;;;;;;10.64;51.77;99858.06;4414453;32;34790;-88
2022/02/20 16:51:38;;;;;;;;;;;;;;;10.90;50.98;99856.44;4417101;32;34022;-86
2022/02/20 16:54:06;;;;;;;;;;;;;;;10.62;51.62;99851.19;4417994;32;33405;-89
2022/02/20 16:56:35;;;;;;;;;;;;;;;10.64;51.89;99854.53;4396844;32;32879;-92
2022/02/20 16:59:03;;;;;;;;;;;;;;;10.23;52.62;99854.88;4421116;32;35255;-87
2022/02/20 17:01:32;;;;;;;;;;;;;;;10.26;52.81;99847.47;4406726;32;34553;-89
2022/02/20 17:04:02;;;;;;;;;;;;;;;10.14;53.44;99850.41;4416893;32;32757;-88
2022/02/20 17:06:45;;;;;;;;;;;;;;;10.32;52.50;99849.56;4398353;32;33177;-89
2022/02/20 17:09:13;;;;;;;;;;;;;;;9.71;54.00;99849.91;4424398;32;35132;-89
2022/02/20 17:11:41;;;;;;;;;;;;;;;9.97;53.51;99851.06;4418925;32;32810;-87
2022/02/20 17:14:09;;;;;;;;;;;;;;;10.16;52.96;99848.44;4398938;32;32027;-90
2022/02/20 17:16:36;;;;;;;;;;;;;;;10.45;52.23;99849.25;4388381;32;34263;-86
2022/02/20 17:19:05;;;;;;;;;;;;;;;10.02;53.25;99844.38;4395817;32;34427;-87
2022/02/20 17:21:36;;;;;;;;;;;;;;;9.95;53.45;99842.41;4411676;32;33467;-87
2022/02/20 17:24:04;;;;;;;;;;;;;;;10.07;53.15;99841.31;4424337;32;33182;-86
2022/02/20 17:26:33;;;;;;;;;;;;;;;10.07;52.91;99847.47;4431831;32;34144;-89
2022/02/20 17:29:05;;;;;;;;;;;;;;;9.88;53.39;99846.56;4403826;32;33517;-84
2022/02/20 17:31:34;;;;;;;;;;;;;;;9.97;53.21;99846.59;4435551;32;34542;-89
2022/02/20 17:34:05;;;;;;;;;;;;;;;9.73;53.64;99848.81;4422808;32;32073;-89
2022/02/20 17:36:33;;;;;;;;;;;;;;;10.22;52.52;99845.22;4436259;32;34309;-90
2022/02/20 17:39:00;;;;;;;;;;;;;;;10.26;52.26;99849.28;4434701;32;34134;-90
2022/02/20 17:41:29;;;;;;;;;;;;;;;9.60;54.16;99850.03;4416474;32;34600;-89
2022/02/20 17:43:59;;;;;;;;;;;;;;;9.52;54.46;99849.88;4446717;32;33287;-87
2022/02/20 17:46:27;;;;;;;;;;;;;;;9.65;53.97;99847.81;4423748;32;33708;-88
2022/02/20 17:48:55;;;;;;;;;;;;;;;9.64;54.27;99846.97;4436043;32;35060;-86
2022/02/20 17:51:23;;;;;;;;;;;;;;;9.51;54.30;99841.09;4442235;32;34761;-88
2022/02/20 17:53:52;;;;;;;;;;;;;;;9.76;53.78;99840.56;4422615;32;31904;-88
2022/02/20 17:56:22;;;;;;;;;;;;;;;9.79;53.76;99834.13;4432528;32;34866;-88
2022/02/20 17:58:52;;;;;;;;;;;;;;;9.56;54.42;99840.66;4420837;32;34394;-87
2022/02/20 18:01:22;;;;;;;;;;;;;;;9.72;53.76;99841.00;4434796;32;33512;-89
2022/02/20 18:03:50;;;;;;;;;;;;;;;9.66;53.90;99846.84;4431446;32;33464;-88
2022/02/20 18:06:18;;;;;;;;;;;;;;;9.73;54.12;99840.81;4419554;32;33711;-89
2022/02/20 18:08:47;;;;;;;;;;;;;;;9.52;54.31;99837.44;4424222;32;35203;-88
2022/02/20 18:11:17;;;;;;;;;;;;;;;9.94;53.44;99844.19;4421474;32;34618;-89
2022/02/20 18:13:53;;;;;;;;;;;;;;;9.97;53.36;99840.44;4436360;32;33346;-89
2022/02/20 18:16:21;;;;;;;;;;;;;;;9.71;54.12;99834.81;4444943;32;34436;-89
2022/02/20 18:18:49;;;;;;;;;;;;;;;9.65;54.46;99832.72;4432441;32;35048;-88
2022/02/20 18:21:18;;;;;;;;;;;;;;;9.98;53.37;99837.66;4426149;32;34184;-87
2022/02/20 18:23:48;;;;;;;;;;;;;;;9.86;53.68;99832.59;4447479;32;33735;-89
2022/02/20 18:26:16;;;;;;;;;;;;;;;9.95;53.59;99834.41;4424255;32;33101;-88
2022/02/20 18:28:44;;;;;;;;;;;;;;;10.00;53.65;99827.72;4426534;32;33980;-85
2022/02/20 18:31:12;;;;;;;;;;;;;;;9.91;53.42;99825.06;4398823;32;33902;-87
2022/02/20 18:33:42;;;;;;;;;;;;;;;9.93;53.46;99813.28;4433505;32;32756;-90
2022/02/20 18:36:09;;;;;;;;;;;;;;;9.67;54.11;99809.53;4445787;32;33704;-88
2022/02/20 18:38:38;;;;;;;;;;;;;;;10.02;53.35;99814.28;4425586;32;35335;-85
2022/02/20 18:41:07;;;;;;;;;;;;;;;9.88;53.73;99810.22;4424929;32;34625;-89
2022/02/20 18:43:35;;;;;;;;;;;;;;;9.73;54.67;99813.44;4434577;32;31958;-89
2022/02/20 18:46:03;;;;;;;;;;;;;;;9.41;55.59;99813.66;4422498;32;33396;-89
2022/02/20 18:48:31;;;;;;;;;;;;;;;9.80;54.61;99811.88;4413636;32;34091;-89
2022/02/20 18:50:58;;;;;;;;;;;;;;;9.82;54.81;99810.78;4420800;32;33422;-89
2022/02/20 18:53:28;;;;;;;;;;;;;;;9.67;54.97;99820.16;4423819;32;32652;-88
2022/02/20 18:55:56;;;;;;;;;;;;;;;9.71;54.66;99815.38;4441690;32;34332;-89
2022/02/20 18:58:36;;;;;;;;;;;;;;;9.71;55.05;99818.87;4429888;32;36239;-90
2022/02/20 19:01:04;;;;;;;;;;;;;;;10.01;54.04;99813.44;4441243;32;34927;-89
2022/02/20 19:03:32;;;;;;;;;;;;;;;10.09;53.86;99816.28;4428962;32;32312;-88
2022/02/20 19:06:01;;;;;;;;;;;;;;;10.20;53.73;99812.63;4416028;32;34162;-90
2022/02/20 19:08:28;;;;;;;;;;;;;;;9.93;54.43;99812.47;4403569;32;34269;-89
2022/02/20 19:10:57;;;;;;;;;;;;;;;10.30;53.59;99819.59;4412678;32;33287;-90
2022/02/20 19:13:26;;;;;;;;;;;;;;;10.11;54.03;99816.97;4441653;32;34108;-89
2022/02/20 19:15:53;;;;;;;;;;;;;;;10.40;53.19;99809.78;4438903;32;34131;-89
2022/02/20 19:18:22;;;;;;;;;;;;;;;10.15;53.79;99801.56;4439933;32;35285;-89
2022/02/20 19:20:52;;;;;;;;;;;;;;;10.14;53.86;99806.06;4437010;32;32818;-89
2022/02/20 19:23:20;;;;;;;;;;;;;;;10.37;53.20;99798.62;4424978;32;32223;-90
2022/02/20 19:25:49;;;;;;;;;;;;;;;10.63;52.61;99807.62;4440818;32;34508;-90
2022/02/20 19:28:17;;;;;;;;;;;;;;;10.20;53.92;99807.31;4438895;32;36154;-90
2022/02/20 19:30:46;;;;;;;;;;;;;;;10.19;53.81;99803.81;4429756;32;34548;-88
2022/02/20 19:33:14;;;;;;;;;;;;;;;10.46;53.33;99789.78;4426001;32;33590;-90
2022/02/20 19:35:42;;;;;;;;;;;;;;;10.34;53.35;99780.28;4436701;32;33628;-89
2022/02/20 19:38:12;;;;;;;;;;;;;;;10.50;53.26;99783.19;4437849;32;35000;-89
2022/02/20 19:40:41;;;;;;;;;;;;;;;10.63;52.84;99784.53;4425461;32;34381;-91
2022/02/20 19:43:10;;;;;;;;;;;;;;;10.43;53.36;99782.94;4447253;32;32825;-88
2022/02/20 19:45:42;;;;;;;;;;;;;;;10.59;53.13;99788.47;4415059;32;34223;-89
2022/02/20 19:48:11;;;;;;;;;;;;;;;10.47;53.41;99786.97;4423372;32;35214;-89
2022/02/20 19:50:39;;;;;;;;;;;;;;;10.64;53.20;99786.22;4406639;32;33591;-89
2022/02/20 19:53:06;;;;;;;;;;;;;;;10.43;53.84;99785.59;4408830;32;31971;-88
2022/02/20 19:55:34;;;;;;;;;;;;;;;10.17;54.73;99781.84;4443366;32;35145;-89
2022/02/20 19:58:02;;;;;;;;;;;;;;;9.99;55.59;99777.34;4423226;32;34710;-89
2022/02/20 20:00:31;;;;;;;;;;;;;;;9.91;55.78;99774.56;4426722;32;34879;-87
2022/02/20 20:03:00;;;;;;;;;;;;;;;9.83;56.52;99769.94;4424222;32;32085;-89
2022/02/20 20:06:04;;;;;;;;;;;;;;;9.43;57.49;99785.16;4422607;32;33526;-90
2022/02/20 20:08:32;;;;;;;;;;;;;;;9.67;57.10;99782.09;4440650;32;35982;-88
2022/02/20 20:11:00;;;;;;;;;;;;;;;9.67;57.11;99787.41;4426149;32;34469;-89
2022/02/20 20:13:28;;;;;;;;;;;;;;;10.24;55.49;99790.94;4432768;32;32760;-90
2022/02/20 20:15:56;;;;;;;;;;;;;;;9.73;56.88;99792.19;4427026;32;34134;-90
2022/02/20 20:18:24;;;;;;;;;;;;;;;9.49;57.65;99797.91;4416928;32;34984;-90
2022/02/20 20:20:52;;;;;;;;;;;;;;;9.98;56.32;99797.78;4423937;32;34083;-89
2022/02/20 20:23:21;;;;;;;;;;;;;;;9.54;57.59;99792.16;4433461;32;33132;-87
2022/02/20 20:25:49;;;;;;;;;;;;;;;10.00;56.52;99787.84;4431936;32;32696;-89
2022/02/20 20:28:17;;;;;;;;;;;;;;;9.81;56.97;99795.81;4436321;32;33905;-90
2022/02/20 20:30:45;;;;;;;;;;;;;;;10.14;55.90;99790.13;4423053;32;34102;-88
2022/02/20 20:33:13;;;;;;;;;;;;;;;9.79;56.88;99788.97;4422469;32;32852;-85
2022/02/20 20:35:42;;;;;;;;;;;;;;;10.18;55.87;99780.03;4430294;32;33716;-89
2022/02/20 20:38:10;;;;;;;;;;;;;;;9.74;57.47;99772.63;4411800;32;34446;-89
2022/02/20 20:40:37;;;;;;;;;;;;;;;10.13;56.29;99784.94;4422053;32;33352;-88
2022/02/20 20:43:06;;;;;;;;;;;;;;;10.33;55.76;99778.59;4422300;32;31914;-89
2022/02/20 20:45:35;;;;;;;;;;;;;;;10.38;55.48;99774.53;4410698;32;33544;-88
2022/02/20 20:48:02;;;;;;;;;;;;;;;10.19;56.48;99765.75;4423927;32;33963;-91
2022/02/20 20:50:30;;;;;;;;;;;;;;;10.30;56.03;99769.06;4423543;32;34235;-90
2022/02/20 20:52:59;;;;;;;;;;;;;;;10.25;56.08;99765.19;4434687;32;31841;-91
2022/02/20 20:55:27;;;;;;;;;;;;;;;10.30;56.16;99760.28;4413464;32;32558;-90
2022/02/20 20:57:56;;;;;;;;;;;;;;;10.05;57.10;99763.53;4415983;32;33876;-91
2022/02/20 21:00:25;;;;;;;;;;;;;;;10.57;55.70;99761.16;4414125;32;33156;-89
2022/02/20 21:02:53;;;;;;;;;;;;;;;10.32;56.21;99756.50;4413515;32;32039;-91
2022/02/20 21:05:21;;;;;;;;;;;;;;;9.95;57.12;99763.53;4428088;32;33942;-89
2022/02/20 21:07:51;;;;;;;;;;;;;;;9.90;57.68;99751.66;4408448;32;34830;-91
2022/02/20 21:10:23;;;;;;;;;;;;;;;10.14;57.07;99744.06;4434579;32;34228;-89
2022/02/20 21:12:54;;;;;;;;;;;;;;;10.02;57.41;99743.38;4415389;32;32738;-91
2022/02/20 21:15:21;;;;;;;;;;;;;;;10.16;56.92;99737.62;4428890;32;32724;-89
2022/02/20 21:17:49;;;;;;;;;;;;;;;9.88;57.92;99742.94;4428939;32;35212;-91
2022/02/20 21:20:17;;;;;;;;;;;;;;;9.88;57.84;99737.62;4437559;32;34259;-91
2022/02/20 21:22:46;;;;;;;;;;;;;;;9.67;58.44;99737.81;4438375;32;33390;-92
2022/02/20 21:25:14;;;;;;;;;;;;;;;9.54;59.13;99736.41;4433053;32;34024;-92
2022/02/20 21:27:42;;;;;;;;;;;;;;;9.81;58.26;99728.56;4437790;32;35185;-91
2022/02/20 21:30:11;;;;;;;;;;;;;;;9.62;58.34;99731.25;4414363;32;33580;-89
2022/02/20 21:32:38;;;;;;;;;;;;;;;10.07;57.33;99727.88;4426282;32;33820;-90
2022/02/20 21:35:07;;;;;;;;;;;;;;;9.97;57.63;99726.16;4401143;32;32420;-91
2022/02/20 21:37:35;;;;;;;;;;;;;;;10.37;56.27;99718.84;4426118;32;35372;-91
2022/02/20 21:40:03;;;;;;;;;;;;;;;10.35;55.96;99718.97;4433291;32;35482;-90
2022/02/20 21:42:36;;;;;;;;;;;;;;;9.83;57.69;99722.12;4426627;32;34345;-91
2022/02/20 21:45:05;;;;;;;;;;;;;;;10.17;56.92;99710.06;4413384;32;34980;-91
2022/02/20 21:47:32;;;;;;;;;;;;;;;10.47;55.48;99709.00;4424075;32;35301;-91
2022/02/20 21:50:00;;;;;;;;;;;;;;;10.51;55.44;99708.56;4413307;32;35268;-91
2022/02/20 21:52:28;;;;;;;;;;;;;;;10.76;54.71;99697.25;4409301;32;31903;-90
2022/02/20 21:54:56;;;;;;;;;;;;;;;10.53;55.46;99687.97;4423385;32;34370;-91
2022/02/20 21:57:26;;;;;;;;;;;;;;;9.84;57.09;99688.44;4402034;32;34076;-90
2022/02/20 21:59:56;;;;;;;;;;;;;;;10.01;57.16;99691.19;4385807;32;34278;-91
2022/02/20 22:02:24;;;;;;;;;;;;;;;10.03;57.22;99701.72;4409890;32;34003;-92
2022/02/20 22:04:53;;;;;;;;;;;;;;;10.17;56.89;99687.94;4400821;32;33094;-92
2022/02/20 22:07:21;;;;;;;;;;;;;;;10.05;57.26;99687.31;4407664;32;33597;-92
2022/02/20 22:09:49;;;;;;;;;;;;;;;10.08;57.09;99678.19;4425546;32;34487;-92
2022/02/20 22:12:16;;;;;;;;;;;;;;;10.08;57.26;99681.69;4450576;32;33137;-91
2022/02/20 22:14:44;;;;;;;;;;;;;;;9.97;57.78;99679.19;4439875;32;34604;-90
2022/02/20 22:17:19;;;;;;;;;;;;;;;10.35;56.77;99676.44;4414779;32;34240;-91
2022/02/20 22:19:47;;;;;;;;;;;;;;;10.30;56.82;99672.53;4429802;32;35170;-91
2022/02/20 22:22:15;;;;;;;;;;;;;;;10.00;58.00;99683.38;4419592;32;32563;-91
2022/02/20 22:24:43;;;;;;;;;;;;;;;9.95;58.03;99673.16;4427206;32;32857;-91
2022/02/20 22:27:10;;;;;;;;;;;;;;;9.72;58.83;99666.47;4408643;32;33971;-92
2022/02/20 22:29:39;;;;;;;;;;;;;;;9.86;58.57;99654.56;4417418;32;33366;-91
2022/02/20 22:32:08;;;;;;;;;;;;;;;10.21;57.55;99644.97;4416205;32;32459;-90
2022/02/20 22:34:35;;;;;;;;;;;;;;;9.98;58.31;99638.31;4414282;32;33393;-92
2022/02/20 22:37:03;;;;;;;;;;;;;;;10.32;57.17;99636.00;4421140;32;35600;-91
2022/02/20 22:39:31;;;;;;;;;;;;;;;10.77;55.88;99627.06;4413833;32;33503;-91
2022/02/20 22:42:01;;;;;;;;;;;;;;;10.09;57.74;99632.88;4397646;32;32197;-91
2022/02/20 22:44:29;;;;;;;;;;;;;;;10.16;57.31;99636.63;4424519;32;34869;-90
2022/02/20 22:46:59;;;;;;;;;;;;;;;9.94;58.17;99630.78;4414860;32;35174;-91
2022/02/20 22:49:26;;;;;;;;;;;;;;;10.29;57.08;99636.31;4414007;32;34609;-91
2022/02/20 22:51:54;;;;;;;;;;;;;;;10.54;56.20;99633.78;4414281;32;34323;-92
2022/02/20 22:54:24;;;;;;;;;;;;;;;9.51;59.69;99643.72;4414447;32;34309;-91
2022/02/20 22:56:52;;;;;;;;;;;;;;;9.74;59.12;99640.59;4434173;32;34963;-91
2022/02/20 22:59:20;;;;;;;;;;;;;;;9.74;59.04;99632.63;4430717;32;35183;-91
2022/02/20 23:01:48;;;;;;;;;;;;;;;9.56;59.57;99626.38;4425239;32;32983;-91
2022/02/20 23:04:16;;;;;;;;;;;;;;;9.89;58.57;99633.88;4414724;32;34140;-91
2022/02/20 23:06:44;;;;;;;;;;;;;;;10.04;57.80;99627.16;4399631;32;34895;-91
2022/02/20 23:09:12;;;;;;;;;;;;;;;10.29;57.08;99623.00;4413829;32;33292;-92
2022/02/20 23:11:40;;;;;;;;;;;;;;;10.26;57.13;99620.63;4414465;32;32007;-89
2022/02/20 23:14:08;;;;;;;;;;;;;;;9.93;58.32;99621.16;4389505;32;32807;-90
2022/02/20 23:16:37;;;;;;;;;;;;;;;10.10;57.67;99610.63;4426983;32;36001;-91
2022/02/20 23:19:04;;;;;;;;;;;;;;;9.79;58.56;99614.47;4413911;32;33257;-89
2022/02/20 23:21:35;;;;;;;;;;;;;;;10.05;57.75;99601.41;4429648;32;32953;-91
2022/02/20 23:24:03;;;;;;;;;;;;;;;10.17;57.27;99600.22;4416007;32;33318;-91
2022/02/20 23:26:31;;;;;;;;;;;;;;;10.23;56.95;99591.69;4425972;32;35040;-91
2022/02/20 23:28:58;;;;;;;;;;;;;;;9.99;57.43;99593.97;4426876;32;34590;-91
2022/02/20 23:31:27;;;;;;;;;;;;;;;10.19;57.10;99583.16;4399928;32;32116;-90
2022/02/20 23:33:56;;;;;;;;;;;;;;;10.11;57.26;99575.06;4425657;32;32790;-91
2022/02/20 23:36:24;;;;;;;;;;;;;;;10.06;57.23;99565.87;4426465;32;34740;-91
2022/02/20 23:38:54;;;;;;;;;;;;;;;10.30;56.29;99558.22;4423747;32;34363;-91
2022/02/20 23:41:21;;;;;;;;;;;;;;;10.21;56.60;99551.13;4411858;32;32242;-91
2022/02/20 23:43:50;;;;;;;;;;;;;;;10.07;56.62;99536.50;4440672;32;34119;-90
2022/02/20 23:46:18;;;;;;;;;;;;;;;9.89;57.18;99545.34;4412790;32;35461;-92
2022/02/20 23:48:46;;;;;;;;;;;;;;;10.05;56.87;99546.44;4425770;32;35237;-91
2022/02/20 23:51:13;;;;;;;;;;;;;;;9.66;58.18;99547.50;4425070;32;33359;-91
2022/02/20 23:53:45;;;;;;;;;;;;;;;9.94;57.37;99533.28;4427229;32;33936;-90
2022/02/20 23:56:15;;;;;;;;;;;;;;;9.54;58.25;99534.56;4424277;32;35484;-91
2022/02/20 23:58:43;;;;;;;;;;;;;;;9.50;58.62;99533.19;4423926;32;33411;-91
